Terminal Aerodrome Forecast
Issued by NWS Green Bay, WI

Home | Current Version | Previous Version | Graphics & Text | Print | Product List | Glossary On
Versions: 1 2 3 4 5 6 7 8 9 10 11 12 13 14 15 16 17 18 19 20 21 22 23 24 25
000
FTUS43 KGRB 140320 AAB
TAFGRB
TAF AMD
KGRB 140320Z 1403/1424 36013G22KT P6SM -SHSN SCT026 BKN040
      TEMPO 1403/1406 5SM -SHSN BKN026
     FM141100 27005KT P6SM SCT040
     FM142100 25006KT P6SM BKN028=

USA.gov is the U.S. government's official web portal to all federal, state and local government web resources and services.